sensor_id;sensor_type;location;lat;lon;timestamp;P1;durP1;ratioP1;P2;durP2;ratioP2
49147;SDS011;41980;45.550;12.070;2023-04-05T00:00:38;5.40;;;2.67;;
49147;SDS011;41980;45.550;12.070;2023-04-05T00:06:40;5.80;;;3.30;;
49147;SDS011;41980;45.550;12.070;2023-04-05T00:12:44;4.78;;;2.50;;
49147;SDS011;41980;45.550;12.070;2023-04-05T00:18:46;3.05;;;1.88;;
49147;SDS011;41980;45.550;12.070;2023-04-05T00:24:52;3.53;;;1.77;;
49147;SDS011;41980;45.550;12.070;2023-04-05T00:30:54;3.45;;;1.63;;
49147;SDS011;41980;45.550;12.070;2023-04-05T00:36:56;3.05;;;1.75;;
49147;SDS011;41980;45.550;12.070;2023-04-05T00:42:57;3.65;;;1.67;;
49147;SDS011;41980;45.550;12.070;2023-04-05T00:48:59;3.63;;;1.83;;
49147;SDS011;41980;45.550;12.070;2023-04-05T00:55:01;3.80;;;1.70;;
49147;SDS011;41980;45.550;12.070;2023-04-05T01:13:23;3.45;;;1.80;;
49147;SDS011;41980;45.550;12.070;2023-04-05T01:19:27;4.00;;;2.25;;
49147;SDS011;41980;45.550;12.070;2023-04-05T01:31:42;2.67;;;1.50;;
49147;SDS011;41980;45.550;12.070;2023-04-05T01:37:48;3.08;;;1.38;;
49147;SDS011;41980;45.550;12.070;2023-04-05T01:43:55;3.72;;;1.58;;
49147;SDS011;41980;45.550;12.070;2023-04-05T01:49:57;3.40;;;1.45;;
49147;SDS011;41980;45.550;12.070;2023-04-05T01:56:00;4.95;;;2.10;;
49147;SDS011;41980;45.550;12.070;2023-04-05T02:02:03;3.45;;;1.70;;
49147;SDS011;41980;45.550;12.070;2023-04-05T02:08:05;3.60;;;1.85;;
49147;SDS011;41980;45.550;12.070;2023-04-05T02:14:07;4.07;;;2.05;;
49147;SDS011;41980;45.550;12.070;2023-04-05T02:20:11;2.92;;;1.70;;
49147;SDS011;41980;45.550;12.070;2023-04-05T02:26:14;3.60;;;1.80;;
49147;SDS011;41980;45.550;12.070;2023-04-05T02:32:16;3.72;;;2.03;;
49147;SDS011;41980;45.550;12.070;2023-04-05T02:38:18;3.10;;;1.65;;
49147;SDS011;41980;45.550;12.070;2023-04-05T02:44:20;3.70;;;1.80;;
49147;SDS011;41980;45.550;12.070;2023-04-05T02:50:22;2.67;;;1.50;;
49147;SDS011;41980;45.550;12.070;2023-04-05T03:02:27;4.83;;;1.50;;
49147;SDS011;41980;45.550;12.070;2023-04-05T03:08:30;4.22;;;2.05;;
49147;SDS011;41980;45.550;12.070;2023-04-05T03:14:37;3.83;;;1.80;;
49147;SDS011;41980;45.550;12.070;2023-04-05T03:20:42;3.90;;;1.42;;
49147;SDS011;41980;45.550;12.070;2023-04-05T03:26:52;3.70;;;1.95;;
49147;SDS011;41980;45.550;12.070;2023-04-05T03:32:58;4.50;;;1.73;;
49147;SDS011;41980;45.550;12.070;2023-04-05T03:39:05;6.30;;;1.75;;
49147;SDS011;41980;45.550;12.070;2023-04-05T03:45:09;3.42;;;1.63;;
49147;SDS011;41980;45.550;12.070;2023-04-05T03:51:11;3.28;;;1.73;;
49147;SDS011;41980;45.550;12.070;2023-04-05T03:57:12;3.22;;;1.50;;
49147;SDS011;41980;45.550;12.070;2023-04-05T04:03:17;3.15;;;1.40;;
49147;SDS011;41980;45.550;12.070;2023-04-05T04:09:22;2.55;;;1.58;;
49147;SDS011;41980;45.550;12.070;2023-04-05T04:21:34;2.88;;;1.35;;
49147;SDS011;41980;45.550;12.070;2023-04-05T04:27:43;5.82;;;1.58;;
49147;SDS011;41980;45.550;12.070;2023-04-05T04:33:54;4.57;;;2.03;;
49147;SDS011;41980;45.550;12.070;2023-04-05T04:40:04;6.28;;;1.58;;
49147;SDS011;41980;45.550;12.070;2023-04-05T04:46:17;4.70;;;1.77;;
49147;SDS011;41980;45.550;12.070;2023-04-05T04:52:24;4.57;;;2.17;;
49147;SDS011;41980;45.550;12.070;2023-04-05T04:58:26;3.60;;;1.83;;
49147;SDS011;41980;45.550;12.070;2023-04-05T05:04:37;3.33;;;2.00;;
49147;SDS011;41980;45.550;12.070;2023-04-05T05:10:41;3.58;;;1.80;;
49147;SDS011;41980;45.550;12.070;2023-04-05T05:16:43;4.90;;;2.00;;
49147;SDS011;41980;45.550;12.070;2023-04-05T05:22:45;3.55;;;1.50;;
49147;SDS011;41980;45.550;12.070;2023-04-05T05:34:50;4.00;;;2.10;;
49147;SDS011;41980;45.550;12.070;2023-04-05T05:46:58;6.75;;;2.80;;
49147;SDS011;41980;45.550;12.070;2023-04-05T05:53:00;5.50;;;2.30;;
49147;SDS011;41980;45.550;12.070;2023-04-05T05:59:02;3.90;;;2.10;;
49147;SDS011;41980;45.550;12.070;2023-04-05T06:11:06;5.15;;;2.83;;
49147;SDS011;41980;45.550;12.070;2023-04-05T06:23:10;5.25;;;2.78;;
49147;SDS011;41980;45.550;12.070;2023-04-05T06:29:12;5.68;;;2.92;;
49147;SDS011;41980;45.550;12.070;2023-04-05T06:35:14;5.57;;;3.13;;
49147;SDS011;41980;45.550;12.070;2023-04-05T06:41:16;7.32;;;3.20;;
49147;SDS011;41980;45.550;12.070;2023-04-05T06:47:18;4.90;;;2.95;;
49147;SDS011;41980;45.550;12.070;2023-04-05T06:53:20;5.95;;;3.00;;
49147;SDS011;41980;45.550;12.070;2023-04-05T06:59:22;5.53;;;2.90;;
49147;SDS011;41980;45.550;12.070;2023-04-05T07:05:24;6.97;;;3.78;;
49147;SDS011;41980;45.550;12.070;2023-04-05T07:11:26;4.03;;;2.28;;
49147;SDS011;41980;45.550;12.070;2023-04-05T07:17:28;6.50;;;2.92;;
49147;SDS011;41980;45.550;12.070;2023-04-05T07:23:30;8.70;;;3.70;;
49147;SDS011;41980;45.550;12.070;2023-04-05T07:29:32;4.95;;;2.75;;
49147;SDS011;41980;45.550;12.070;2023-04-05T07:35:38;7.65;;;3.78;;
49147;SDS011;41980;45.550;12.070;2023-04-05T07:41:40;5.97;;;2.80;;
49147;SDS011;41980;45.550;12.070;2023-04-05T07:47:42;4.88;;;2.50;;
49147;SDS011;41980;45.550;12.070;2023-04-05T07:53:44;7.00;;;3.97;;
49147;SDS011;41980;45.550;12.070;2023-04-05T07:59:47;5.72;;;3.42;;
49147;SDS011;41980;45.550;12.070;2023-04-05T08:05:53;6.78;;;2.70;;
49147;SDS011;41980;45.550;12.070;2023-04-05T08:11:55;4.70;;;2.72;;
49147;SDS011;41980;45.550;12.070;2023-04-05T08:17:57;6.60;;;3.90;;
49147;SDS011;41980;45.550;12.070;2023-04-05T08:23:59;7.95;;;2.92;;
49147;SDS011;41980;45.550;12.070;2023-04-05T08:30:02;5.10;;;2.20;;
49147;SDS011;41980;45.550;12.070;2023-04-05T08:36:05;4.93;;;3.10;;
49147;SDS011;41980;45.550;12.070;2023-04-05T08:48:19;3.60;;;1.77;;
49147;SDS011;41980;45.550;12.070;2023-04-05T08:54:21;3.97;;;1.90;;
49147;SDS011;41980;45.550;12.070;2023-04-05T09:00:23;4.03;;;2.22;;
49147;SDS011;41980;45.550;12.070;2023-04-05T09:06:27;4.43;;;2.55;;
49147;SDS011;41980;45.550;12.070;2023-04-05T09:12:31;4.90;;;1.73;;
49147;SDS011;41980;45.550;12.070;2023-04-05T09:18:36;4.65;;;1.92;;
49147;SDS011;41980;45.550;12.070;2023-04-05T09:24:38;6.90;;;2.60;;
49147;SDS011;41980;45.550;12.070;2023-04-05T09:30:44;5.63;;;2.63;;
49147;SDS011;41980;45.550;12.070;2023-04-05T09:36:47;4.25;;;2.17;;
49147;SDS011;41980;45.550;12.070;2023-04-05T09:42:49;2.97;;;1.60;;
49147;SDS011;41980;45.550;12.070;2023-04-05T09:48:53;3.25;;;1.95;;
49147;SDS011;41980;45.550;12.070;2023-04-05T09:54:56;2.92;;;1.40;;
49147;SDS011;41980;45.550;12.070;2023-04-05T10:01:01;2.88;;;1.40;;
49147;SDS011;41980;45.550;12.070;2023-04-05T10:07:06;3.47;;;1.88;;
49147;SDS011;41980;45.550;12.070;2023-04-05T10:13:11;3.42;;;1.73;;
49147;SDS011;41980;45.550;12.070;2023-04-05T10:19:15;3.72;;;1.63;;
49147;SDS011;41980;45.550;12.070;2023-04-05T10:25:34;8.00;;;3.22;;
49147;SDS011;41980;45.550;12.070;2023-04-05T10:43:59;7.30;;;2.53;;
49147;SDS011;41980;45.550;12.070;2023-04-05T10:50:05;4.00;;;2.00;;
49147;SDS011;41980;45.550;12.070;2023-04-05T10:56:13;2.90;;;1.80;;
49147;SDS011;41980;45.550;12.070;2023-04-05T11:02:15;3.63;;;2.28;;
49147;SDS011;41980;45.550;12.070;2023-04-05T11:08:18;4.32;;;2.13;;
49147;SDS011;41980;45.550;12.070;2023-04-05T11:20:26;5.03;;;2.38;;
49147;SDS011;41980;45.550;12.070;2023-04-05T11:32:48;5.85;;;2.30;;
49147;SDS011;41980;45.550;12.070;2023-04-05T11:38:51;3.67;;;2.80;;
49147;SDS011;41980;45.550;12.070;2023-04-05T11:45:15;5.50;;;2.70;;
49147;SDS011;41980;45.550;12.070;2023-04-05T11:51:20;4.55;;;2.50;;
49147;SDS011;41980;45.550;12.070;2023-04-05T11:57:24;5.05;;;2.75;;
49147;SDS011;41980;45.550;12.070;2023-04-05T12:03:27;5.43;;;2.50;;
49147;SDS011;41980;45.550;12.070;2023-04-05T12:09:30;4.70;;;2.50;;
49147;SDS011;41980;45.550;12.070;2023-04-05T12:15:35;6.15;;;2.67;;
49147;SDS011;41980;45.550;12.070;2023-04-05T12:21:40;3.20;;;1.88;;
49147;SDS011;41980;45.550;12.070;2023-04-05T12:27:42;4.63;;;2.63;;
49147;SDS011;41980;45.550;12.070;2023-04-05T12:33:45;4.28;;;2.33;;
49147;SDS011;41980;45.550;12.070;2023-04-05T12:45:52;3.72;;;1.92;;
49147;SDS011;41980;45.550;12.070;2023-04-05T12:51:59;5.45;;;2.88;;
49147;SDS011;41980;45.550;12.070;2023-04-05T12:58:03;3.47;;;2.13;;
49147;SDS011;41980;45.550;12.070;2023-04-05T13:04:06;4.30;;;2.17;;
49147;SDS011;41980;45.550;12.070;2023-04-05T13:10:08;4.65;;;2.25;;
49147;SDS011;41980;45.550;12.070;2023-04-05T13:16:11;5.38;;;1.83;;
49147;SDS011;41980;45.550;12.070;2023-04-05T13:28:14;2.88;;;1.58;;
49147;SDS011;41980;45.550;12.070;2023-04-05T13:40:18;2.17;;;1.20;;
49147;SDS011;41980;45.550;12.070;2023-04-05T13:46:20;4.10;;;2.05;;
49147;SDS011;41980;45.550;12.070;2023-04-05T13:58:26;4.07;;;1.80;;
49147;SDS011;41980;45.550;12.070;2023-04-05T14:04:28;3.70;;;1.63;;
49147;SDS011;41980;45.550;12.070;2023-04-05T14:10:30;4.50;;;2.50;;
49147;SDS011;41980;45.550;12.070;2023-04-05T14:16:32;4.88;;;2.88;;
49147;SDS011;41980;45.550;12.070;2023-04-05T14:22:35;3.90;;;2.40;;
49147;SDS011;41980;45.550;12.070;2023-04-05T14:28:37;6.20;;;2.03;;
49147;SDS011;41980;45.550;12.070;2023-04-05T14:34:39;5.30;;;2.08;;
49147;SDS011;41980;45.550;12.070;2023-04-05T14:40:42;5.45;;;1.80;;
49147;SDS011;41980;45.550;12.070;2023-04-05T14:46:44;3.63;;;2.30;;
49147;SDS011;41980;45.550;12.070;2023-04-05T14:52:46;4.65;;;1.70;;
49147;SDS011;41980;45.550;12.070;2023-04-05T14:58:48;3.28;;;1.95;;
49147;SDS011;41980;45.550;12.070;2023-04-05T15:04:50;2.97;;;1.50;;
49147;SDS011;41980;45.550;12.070;2023-04-05T15:10:53;3.85;;;1.60;;
49147;SDS011;41980;45.550;12.070;2023-04-05T15:16:56;2.83;;;1.55;;
49147;SDS011;41980;45.550;12.070;2023-04-05T15:22:58;3.35;;;1.40;;
49147;SDS011;41980;45.550;12.070;2023-04-05T15:29:01;3.15;;;1.50;;
49147;SDS011;41980;45.550;12.070;2023-04-05T15:35:03;3.38;;;1.42;;
49147;SDS011;41980;45.550;12.070;2023-04-05T15:41:07;3.03;;;1.58;;
49147;SDS011;41980;45.550;12.070;2023-04-05T15:47:09;2.20;;;1.23;;
49147;SDS011;41980;45.550;12.070;2023-04-05T15:53:11;2.92;;;1.13;;
49147;SDS011;41980;45.550;12.070;2023-04-05T15:59:13;3.47;;;1.30;;
49147;SDS011;41980;45.550;12.070;2023-04-05T16:05:16;3.20;;;1.55;;
49147;SDS011;41980;45.550;12.070;2023-04-05T16:11:18;3.83;;;1.55;;
49147;SDS011;41980;45.550;12.070;2023-04-05T16:23:22;5.25;;;2.05;;
49147;SDS011;41980;45.550;12.070;2023-04-05T16:29:25;2.38;;;1.42;;
49147;SDS011;41980;45.550;12.070;2023-04-05T16:35:28;2.92;;;1.38;;
49147;SDS011;41980;45.550;12.070;2023-04-05T16:41:32;2.70;;;1.50;;
49147;SDS011;41980;45.550;12.070;2023-04-05T16:47:36;2.78;;;1.50;;
49147;SDS011;41980;45.550;12.070;2023-04-05T16:53:38;2.75;;;1.27;;
49147;SDS011;41980;45.550;12.070;2023-04-05T16:59:41;2.67;;;1.50;;
49147;SDS011;41980;45.550;12.070;2023-04-05T17:05:43;2.70;;;1.63;;
49147;SDS011;41980;45.550;12.070;2023-04-05T17:11:45;2.90;;;1.40;;
49147;SDS011;41980;45.550;12.070;2023-04-05T17:17:47;2.40;;;1.40;;
49147;SDS011;41980;45.550;12.070;2023-04-05T17:23:49;3.72;;;2.05;;
49147;SDS011;41980;45.550;12.070;2023-04-05T17:35:53;40.85;;;24.65;;
49147;SDS011;41980;45.550;12.070;2023-04-05T17:41:55;14.60;;;7.22;;
49147;SDS011;41980;45.550;12.070;2023-04-05T17:54:00;11.40;;;6.25;;
49147;SDS011;41980;45.550;12.070;2023-04-05T18:00:03;9.98;;;5.93;;
49147;SDS011;41980;45.550;12.070;2023-04-05T18:06:06;29.67;;;16.70;;
49147;SDS011;41980;45.550;12.070;2023-04-05T18:12:08;11.98;;;6.97;;
49147;SDS011;41980;45.550;12.070;2023-04-05T18:18:10;10.15;;;5.00;;
49147;SDS011;41980;45.550;12.070;2023-04-05T18:30:14;6.45;;;4.18;;
49147;SDS011;41980;45.550;12.070;2023-04-05T18:36:16;6.53;;;3.83;;
49147;SDS011;41980;45.550;12.070;2023-04-05T18:48:22;6.22;;;4.28;;
49147;SDS011;41980;45.550;12.070;2023-04-05T18:54:25;7.05;;;4.10;;
49147;SDS011;41980;45.550;12.070;2023-04-05T19:00:27;5.50;;;3.70;;
49147;SDS011;41980;45.550;12.070;2023-04-05T19:12:32;6.70;;;4.35;;
49147;SDS011;41980;45.550;12.070;2023-04-05T19:24:38;6.90;;;4.38;;
49147;SDS011;41980;45.550;12.070;2023-04-05T19:30:41;7.10;;;4.40;;
49147;SDS011;41980;45.550;12.070;2023-04-05T19:36:43;5.68;;;3.95;;
49147;SDS011;41980;45.550;12.070;2023-04-05T19:42:46;10.88;;;7.07;;
49147;SDS011;41980;45.550;12.070;2023-04-05T19:54:49;8.52;;;4.90;;
49147;SDS011;41980;45.550;12.070;2023-04-05T20:00:52;7.75;;;5.07;;
49147;SDS011;41980;45.550;12.070;2023-04-05T20:06:57;9.80;;;6.10;;
49147;SDS011;41980;45.550;12.070;2023-04-05T20:12:59;24.35;;;14.93;;
49147;SDS011;41980;45.550;12.070;2023-04-05T20:25:10;25.55;;;14.85;;
49147;SDS011;41980;45.550;12.070;2023-04-05T20:31:32;18.52;;;11.85;;
49147;SDS011;41980;45.550;12.070;2023-04-05T20:37:34;15.88;;;9.88;;
49147;SDS011;41980;45.550;12.070;2023-04-05T20:43:37;17.65;;;10.63;;
49147;SDS011;41980;45.550;12.070;2023-04-05T20:49:40;14.80;;;8.07;;
49147;SDS011;41980;45.550;12.070;2023-04-05T20:55:43;16.13;;;9.43;;
49147;SDS011;41980;45.550;12.070;2023-04-05T21:07:47;12.13;;;7.28;;
49147;SDS011;41980;45.550;12.070;2023-04-05T21:13:51;10.68;;;6.68;;
49147;SDS011;41980;45.550;12.070;2023-04-05T21:19:54;10.38;;;7.05;;
49147;SDS011;41980;45.550;12.070;2023-04-05T21:31:59;11.18;;;6.75;;
49147;SDS011;41980;45.550;12.070;2023-04-05T21:38:01;9.45;;;6.03;;
49147;SDS011;41980;45.550;12.070;2023-04-05T21:44:03;10.40;;;6.95;;
49147;SDS011;41980;45.550;12.070;2023-04-05T21:50:07;10.95;;;7.15;;
49147;SDS011;41980;45.550;12.070;2023-04-05T21:56:09;11.13;;;6.85;;
49147;SDS011;41980;45.550;12.070;2023-04-05T22:02:11;11.48;;;6.85;;
49147;SDS011;41980;45.550;12.070;2023-04-05T22:14:15;11.98;;;8.23;;
49147;SDS011;41980;45.550;12.070;2023-04-05T22:20:18;10.10;;;7.10;;
49147;SDS011;41980;45.550;12.070;2023-04-05T22:32:22;16.63;;;9.63;;
49147;SDS011;41980;45.550;12.070;2023-04-05T22:44:27;12.98;;;7.18;;
49147;SDS011;41980;45.550;12.070;2023-04-05T22:50:29;10.90;;;7.57;;
49147;SDS011;41980;45.550;12.070;2023-04-05T22:56:31;10.98;;;7.20;;
49147;SDS011;41980;45.550;12.070;2023-04-05T23:02:34;10.27;;;6.68;;
49147;SDS011;41980;45.550;12.070;2023-04-05T23:14:37;11.48;;;7.95;;
49147;SDS011;41980;45.550;12.070;2023-04-05T23:20:39;11.88;;;8.18;;
49147;SDS011;41980;45.550;12.070;2023-04-05T23:26:41;14.93;;;8.65;;
49147;SDS011;41980;45.550;12.070;2023-04-05T23:32:43;11.15;;;6.55;;
49147;SDS011;41980;45.550;12.070;2023-04-05T23:38:45;13.07;;;6.30;;
49147;SDS011;41980;45.550;12.070;2023-04-05T23:44:48;13.60;;;8.45;;
49147;SDS011;41980;45.550;12.070;2023-04-05T23:56:52;9.02;;;5.70;;
